sensor_id;sensor_type;location;lat;lon;timestamp;P1;durP1;ratioP1;P2;durP2;ratioP2
4857;SDS011;58975;51.978;8.472;2022-11-20T00:01:16;18.88;;;9.85;;
4857;SDS011;58975;51.978;8.472;2022-11-20T00:06:17;24.20;;;10.88;;
4857;SDS011;58975;51.978;8.472;2022-11-20T00:11:19;19.63;;;8.60;;
4857;SDS011;58975;51.978;8.472;2022-11-20T00:16:18;24.35;;;11.30;;
4857;SDS011;58975;51.978;8.472;2022-11-20T00:21:17;21.65;;;10.75;;
4857;SDS011;58975;51.978;8.472;2022-11-20T00:26:18;23.10;;;10.43;;
4857;SDS011;58975;51.978;8.472;2022-11-20T00:31:16;17.92;;;9.25;;
4857;SDS011;58975;51.978;8.472;2022-11-20T00:36:16;20.38;;;9.93;;
4857;SDS011;58975;51.978;8.472;2022-11-20T00:41:15;21.35;;;10.32;;
4857;SDS011;58975;51.978;8.472;2022-11-20T00:46:13;21.52;;;9.88;;
4857;SDS011;58975;51.978;8.472;2022-11-20T00:51:14;18.50;;;9.77;;
4857;SDS011;58975;51.978;8.472;2022-11-20T00:56:14;19.23;;;9.68;;
4857;SDS011;58975;51.978;8.472;2022-11-20T01:01:17;20.15;;;9.55;;
4857;SDS011;58975;51.978;8.472;2022-11-20T01:06:15;22.05;;;10.32;;
4857;SDS011;58975;51.978;8.472;2022-11-20T01:11:15;17.02;;;9.25;;
4857;SDS011;58975;51.978;8.472;2022-11-20T01:16:20;19.15;;;9.70;;
4857;SDS011;58975;51.978;8.472;2022-11-20T01:21:20;17.58;;;10.13;;
4857;SDS011;58975;51.978;8.472;2022-11-20T01:26:22;16.88;;;8.77;;
4857;SDS011;58975;51.978;8.472;2022-11-20T01:31:24;19.80;;;9.60;;
4857;SDS011;58975;51.978;8.472;2022-11-20T01:36:22;19.35;;;10.05;;
4857;SDS011;58975;51.978;8.472;2022-11-20T01:46:36;19.73;;;9.50;;
4857;SDS011;58975;51.978;8.472;2022-11-20T01:51:39;17.38;;;8.93;;
4857;SDS011;58975;51.978;8.472;2022-11-20T01:56:42;20.10;;;9.65;;
4857;SDS011;58975;51.978;8.472;2022-11-20T02:01:41;17.50;;;9.00;;
4857;SDS011;58975;51.978;8.472;2022-11-20T02:06:40;18.55;;;9.35;;
4857;SDS011;58975;51.978;8.472;2022-11-20T02:11:38;21.52;;;9.23;;
4857;SDS011;58975;51.978;8.472;2022-11-20T02:16:36;27.70;;;9.98;;
4857;SDS011;58975;51.978;8.472;2022-11-20T02:27:08;18.25;;;8.43;;
4857;SDS011;58975;51.978;8.472;2022-11-20T02:32:17;17.08;;;7.65;;
4857;SDS011;58975;51.978;8.472;2022-11-20T02:37:23;15.60;;;7.75;;
4857;SDS011;58975;51.978;8.472;2022-11-20T02:42:26;14.23;;;6.45;;
4857;SDS011;58975;51.978;8.472;2022-11-20T02:47:22;13.60;;;7.32;;
4857;SDS011;58975;51.978;8.472;2022-11-20T02:52:19;13.93;;;7.10;;
4857;SDS011;58975;51.978;8.472;2022-11-20T02:57:15;14.88;;;6.43;;
4857;SDS011;58975;51.978;8.472;2022-11-20T03:02:12;14.18;;;6.97;;
4857;SDS011;58975;51.978;8.472;2022-11-20T03:07:08;12.90;;;6.30;;
4857;SDS011;58975;51.978;8.472;2022-11-20T03:12:05;13.63;;;6.75;;
4857;SDS011;58975;51.978;8.472;2022-11-20T03:17:02;12.63;;;6.57;;
4857;SDS011;58975;51.978;8.472;2022-11-20T03:21:58;15.70;;;7.20;;
4857;SDS011;58975;51.978;8.472;2022-11-20T03:26:56;14.45;;;6.75;;
4857;SDS011;58975;51.978;8.472;2022-11-20T03:31:52;19.00;;;6.85;;
4857;SDS011;58975;51.978;8.472;2022-11-20T03:36:48;13.38;;;7.03;;
4857;SDS011;58975;51.978;8.472;2022-11-20T03:41:45;11.55;;;6.78;;
4857;SDS011;58975;51.978;8.472;2022-11-20T03:46:41;16.30;;;7.82;;
4857;SDS011;58975;51.978;8.472;2022-11-20T03:51:38;15.73;;;7.30;;
4857;SDS011;58975;51.978;8.472;2022-11-20T03:56:36;11.32;;;5.85;;
4857;SDS011;58975;51.978;8.472;2022-11-20T04:01:35;12.13;;;6.78;;
4857;SDS011;58975;51.978;8.472;2022-11-20T04:06:35;11.48;;;6.50;;
4857;SDS011;58975;51.978;8.472;2022-11-20T04:11:34;13.30;;;6.78;;
4857;SDS011;58975;51.978;8.472;2022-11-20T04:16:33;13.25;;;6.68;;
4857;SDS011;58975;51.978;8.472;2022-11-20T04:21:31;16.75;;;7.60;;
4857;SDS011;58975;51.978;8.472;2022-11-20T04:26:28;15.80;;;7.97;;
4857;SDS011;58975;51.978;8.472;2022-11-20T04:31:27;13.30;;;6.05;;
4857;SDS011;58975;51.978;8.472;2022-11-20T04:36:26;14.20;;;6.65;;
4857;SDS011;58975;51.978;8.472;2022-11-20T04:41:25;9.82;;;4.85;;
4857;SDS011;58975;51.978;8.472;2022-11-20T04:46:23;12.80;;;6.28;;
4857;SDS011;58975;51.978;8.472;2022-11-20T04:51:19;14.35;;;7.13;;
4857;SDS011;58975;51.978;8.472;2022-11-20T04:56:16;14.45;;;7.25;;
4857;SDS011;58975;51.978;8.472;2022-11-20T05:01:16;15.05;;;7.55;;
4857;SDS011;58975;51.978;8.472;2022-11-20T05:06:16;17.08;;;7.32;;
4857;SDS011;58975;51.978;8.472;2022-11-20T05:11:16;10.75;;;5.93;;
4857;SDS011;58975;51.978;8.472;2022-11-20T05:16:15;14.55;;;6.97;;
4857;SDS011;58975;51.978;8.472;2022-11-20T05:21:14;14.50;;;6.00;;
4857;SDS011;58975;51.978;8.472;2022-11-20T05:26:15;13.77;;;6.43;;
4857;SDS011;58975;51.978;8.472;2022-11-20T05:31:14;17.05;;;6.80;;
4857;SDS011;58975;51.978;8.472;2022-11-20T05:36:21;12.95;;;6.13;;
4857;SDS011;58975;51.978;8.472;2022-11-20T05:41:19;15.65;;;7.13;;
4857;SDS011;58975;51.978;8.472;2022-11-20T05:46:20;13.48;;;6.68;;
4857;SDS011;58975;51.978;8.472;2022-11-20T05:51:24;8.15;;;4.72;;
4857;SDS011;58975;51.978;8.472;2022-11-20T05:56:21;10.60;;;4.72;;
4857;SDS011;58975;51.978;8.472;2022-11-20T06:01:19;12.77;;;5.22;;
4857;SDS011;58975;51.978;8.472;2022-11-20T06:06:18;8.52;;;4.63;;
4857;SDS011;58975;51.978;8.472;2022-11-20T06:11:15;10.63;;;4.80;;
4857;SDS011;58975;51.978;8.472;2022-11-20T06:16:13;10.82;;;5.25;;
4857;SDS011;58975;51.978;8.472;2022-11-20T06:21:12;8.98;;;4.97;;
4857;SDS011;58975;51.978;8.472;2022-11-20T06:26:11;6.50;;;4.20;;
4857;SDS011;58975;51.978;8.472;2022-11-20T06:31:12;8.52;;;4.40;;
4857;SDS011;58975;51.978;8.472;2022-11-20T06:41:10;6.85;;;3.83;;
4857;SDS011;58975;51.978;8.472;2022-11-20T06:46:09;11.43;;;4.88;;
4857;SDS011;58975;51.978;8.472;2022-11-20T06:51:07;7.60;;;3.70;;
4857;SDS011;58975;51.978;8.472;2022-11-20T06:56:04;8.90;;;4.22;;
4857;SDS011;58975;51.978;8.472;2022-11-20T07:01:03;12.60;;;4.80;;
4857;SDS011;58975;51.978;8.472;2022-11-20T07:06:05;6.68;;;4.22;;
4857;SDS011;58975;51.978;8.472;2022-11-20T07:11:03;8.45;;;4.78;;
4857;SDS011;58975;51.978;8.472;2022-11-20T07:16:03;10.00;;;4.82;;
4857;SDS011;58975;51.978;8.472;2022-11-20T07:21:01;7.53;;;4.68;;
4857;SDS011;58975;51.978;8.472;2022-11-20T07:26:02;9.25;;;4.35;;
4857;SDS011;58975;51.978;8.472;2022-11-20T07:31:00;11.27;;;4.65;;
4857;SDS011;58975;51.978;8.472;2022-11-20T07:35:58;12.43;;;5.40;;
4857;SDS011;58975;51.978;8.472;2022-11-20T07:45:56;12.25;;;5.90;;
4857;SDS011;58975;51.978;8.472;2022-11-20T07:50:54;9.57;;;5.80;;
4857;SDS011;58975;51.978;8.472;2022-11-20T07:55:51;13.90;;;6.13;;
4857;SDS011;58975;51.978;8.472;2022-11-20T08:00:48;10.93;;;5.95;;
4857;SDS011;58975;51.978;8.472;2022-11-20T08:05:45;10.20;;;4.97;;
4857;SDS011;58975;51.978;8.472;2022-11-20T08:10:41;12.30;;;6.20;;
4857;SDS011;58975;51.978;8.472;2022-11-20T08:15:38;11.45;;;5.70;;
4857;SDS011;58975;51.978;8.472;2022-11-20T08:20:36;11.95;;;6.35;;
4857;SDS011;58975;51.978;8.472;2022-11-20T08:25:36;11.43;;;6.03;;
4857;SDS011;58975;51.978;8.472;2022-11-20T08:30:33;13.55;;;6.72;;
4857;SDS011;58975;51.978;8.472;2022-11-20T08:35:36;12.48;;;5.95;;
4857;SDS011;58975;51.978;8.472;2022-11-20T08:40:33;15.68;;;7.25;;
4857;SDS011;58975;51.978;8.472;2022-11-20T08:45:30;16.33;;;7.05;;
4857;SDS011;58975;51.978;8.472;2022-11-20T08:50:30;13.70;;;7.68;;
4857;SDS011;58975;51.978;8.472;2022-11-20T08:55:30;13.55;;;6.72;;
4857;SDS011;58975;51.978;8.472;2022-11-20T09:00:26;14.30;;;6.78;;
4857;SDS011;58975;51.978;8.472;2022-11-20T09:05:22;12.80;;;6.95;;
4857;SDS011;58975;51.978;8.472;2022-11-20T09:10:19;13.48;;;6.45;;
4857;SDS011;58975;51.978;8.472;2022-11-20T09:15:20;12.07;;;6.88;;
4857;SDS011;58975;51.978;8.472;2022-11-20T09:20:17;12.68;;;6.00;;
4857;SDS011;58975;51.978;8.472;2022-11-20T09:25:13;11.05;;;6.10;;
4857;SDS011;58975;51.978;8.472;2022-11-20T09:30:11;13.63;;;7.25;;
4857;SDS011;58975;51.978;8.472;2022-11-20T09:35:08;9.93;;;5.93;;
4857;SDS011;58975;51.978;8.472;2022-11-20T09:40:06;12.93;;;6.88;;
4857;SDS011;58975;51.978;8.472;2022-11-20T09:50:52;16.37;;;8.57;;
4857;SDS011;58975;51.978;8.472;2022-11-20T09:55:55;14.82;;;7.40;;
4857;SDS011;58975;51.978;8.472;2022-11-20T10:00:52;13.27;;;7.30;;
4857;SDS011;58975;51.978;8.472;2022-11-20T10:05:53;14.75;;;7.82;;
4857;SDS011;58975;51.978;8.472;2022-11-20T10:10:56;10.75;;;7.15;;
4857;SDS011;58975;51.978;8.472;2022-11-20T10:16:17;11.05;;;7.00;;
4857;SDS011;58975;51.978;8.472;2022-11-20T10:32:11;12.13;;;6.97;;
4857;SDS011;58975;51.978;8.472;2022-11-20T10:37:16;13.15;;;7.95;;
4857;SDS011;58975;51.978;8.472;2022-11-20T10:42:20;15.30;;;7.15;;
4857;SDS011;58975;51.978;8.472;2022-11-20T10:47:26;16.25;;;7.10;;
4857;SDS011;58975;51.978;8.472;2022-11-20T10:57:35;14.77;;;7.28;;
4857;SDS011;58975;51.978;8.472;2022-11-20T11:02:41;13.38;;;8.02;;
4857;SDS011;58975;51.978;8.472;2022-11-20T11:07:42;14.70;;;7.95;;
4857;SDS011;58975;51.978;8.472;2022-11-20T11:12:43;10.95;;;6.63;;
4857;SDS011;58975;51.978;8.472;2022-11-20T11:17:47;11.52;;;6.72;;
4857;SDS011;58975;51.978;8.472;2022-11-20T11:22:48;14.18;;;7.97;;
4857;SDS011;58975;51.978;8.472;2022-11-20T11:27:45;12.23;;;7.10;;
4857;SDS011;58975;51.978;8.472;2022-11-20T11:32:45;12.18;;;7.50;;
4857;SDS011;58975;51.978;8.472;2022-11-20T11:37:42;15.15;;;7.50;;
4857;SDS011;58975;51.978;8.472;2022-11-20T11:42:46;17.90;;;7.57;;
4857;SDS011;58975;51.978;8.472;2022-11-20T11:47:49;12.48;;;6.57;;
4857;SDS011;58975;51.978;8.472;2022-11-20T11:52:56;11.25;;;6.38;;
4857;SDS011;58975;51.978;8.472;2022-11-20T11:58:20;18.70;;;6.93;;
4857;SDS011;58975;51.978;8.472;2022-11-20T12:03:38;11.95;;;6.60;;
4857;SDS011;58975;51.978;8.472;2022-11-20T12:08:52;14.73;;;7.60;;
4857;SDS011;58975;51.978;8.472;2022-11-20T12:13:54;15.00;;;7.75;;
4857;SDS011;58975;51.978;8.472;2022-11-20T12:18:57;10.15;;;6.50;;
4857;SDS011;58975;51.978;8.472;2022-11-20T12:24:10;13.95;;;7.30;;
4857;SDS011;58975;51.978;8.472;2022-11-20T12:39:46;13.73;;;6.88;;
4857;SDS011;58975;51.978;8.472;2022-11-20T12:50:13;10.57;;;6.43;;
4857;SDS011;58975;51.978;8.472;2022-11-20T13:00:58;9.43;;;5.70;;
4857;SDS011;58975;51.978;8.472;2022-11-20T13:06:05;14.20;;;6.75;;
4857;SDS011;58975;51.978;8.472;2022-11-20T13:11:18;13.45;;;6.32;;
4857;SDS011;58975;51.978;8.472;2022-11-20T13:16:39;12.02;;;6.80;;
4857;SDS011;58975;51.978;8.472;2022-11-20T13:21:46;12.88;;;6.88;;
4857;SDS011;58975;51.978;8.472;2022-11-20T13:26:47;13.70;;;7.68;;
4857;SDS011;58975;51.978;8.472;2022-11-20T13:31:45;12.98;;;7.38;;
4857;SDS011;58975;51.978;8.472;2022-11-20T13:36:56;12.57;;;6.75;;
4857;SDS011;58975;51.978;8.472;2022-11-20T13:41:54;14.30;;;7.75;;
4857;SDS011;58975;51.978;8.472;2022-11-20T13:46:59;13.68;;;7.57;;
4857;SDS011;58975;51.978;8.472;2022-11-20T13:52:22;12.30;;;7.38;;
4857;SDS011;58975;51.978;8.472;2022-11-20T14:02:41;17.02;;;7.75;;
4857;SDS011;58975;51.978;8.472;2022-11-20T14:07:39;12.67;;;6.47;;
4857;SDS011;58975;51.978;8.472;2022-11-20T14:12:38;17.58;;;9.27;;
4857;SDS011;58975;51.978;8.472;2022-11-20T14:17:35;16.42;;;8.77;;
4857;SDS011;58975;51.978;8.472;2022-11-20T14:22:32;17.27;;;10.13;;
4857;SDS011;58975;51.978;8.472;2022-11-20T14:27:29;18.77;;;9.00;;
4857;SDS011;58975;51.978;8.472;2022-11-20T14:32:30;22.40;;;9.25;;
4857;SDS011;58975;51.978;8.472;2022-11-20T14:37:27;16.42;;;9.68;;
4857;SDS011;58975;51.978;8.472;2022-11-20T14:42:29;19.50;;;9.50;;
4857;SDS011;58975;51.978;8.472;2022-11-20T14:47:29;18.92;;;9.50;;
4857;SDS011;58975;51.978;8.472;2022-11-20T14:52:27;17.90;;;9.80;;
4857;SDS011;58975;51.978;8.472;2022-11-20T14:57:25;17.80;;;10.15;;
4857;SDS011;58975;51.978;8.472;2022-11-20T15:02:22;17.92;;;8.30;;
4857;SDS011;58975;51.978;8.472;2022-11-20T15:07:23;21.25;;;10.27;;
4857;SDS011;58975;51.978;8.472;2022-11-20T15:12:21;24.33;;;11.30;;
4857;SDS011;58975;51.978;8.472;2022-11-20T15:17:18;22.95;;;11.35;;
4857;SDS011;58975;51.978;8.472;2022-11-20T15:22:14;27.27;;;12.15;;
4857;SDS011;58975;51.978;8.472;2022-11-20T15:27:12;17.67;;;10.13;;
4857;SDS011;58975;51.978;8.472;2022-11-20T15:32:09;20.83;;;10.70;;
4857;SDS011;58975;51.978;8.472;2022-11-20T15:37:08;21.30;;;11.02;;
4857;SDS011;58975;51.978;8.472;2022-11-20T15:42:05;22.88;;;12.05;;
4857;SDS011;58975;51.978;8.472;2022-11-20T15:47:01;20.38;;;10.80;;
4857;SDS011;58975;51.978;8.472;2022-11-20T15:51:58;17.83;;;10.60;;
4857;SDS011;58975;51.978;8.472;2022-11-20T15:56:54;21.90;;;11.32;;
4857;SDS011;58975;51.978;8.472;2022-11-20T16:01:51;22.58;;;11.20;;
4857;SDS011;58975;51.978;8.472;2022-11-20T16:06:47;23.15;;;11.05;;
4857;SDS011;58975;51.978;8.472;2022-11-20T16:11:44;21.02;;;11.60;;
4857;SDS011;58975;51.978;8.472;2022-11-20T16:16:40;21.73;;;10.80;;
4857;SDS011;58975;51.978;8.472;2022-11-20T16:21:39;15.30;;;8.05;;
4857;SDS011;58975;51.978;8.472;2022-11-20T16:26:37;22.52;;;10.93;;
4857;SDS011;58975;51.978;8.472;2022-11-20T16:31:35;22.65;;;11.30;;
4857;SDS011;58975;51.978;8.472;2022-11-20T16:36:32;23.10;;;11.10;;
4857;SDS011;58975;51.978;8.472;2022-11-20T16:41:30;22.98;;;10.95;;
4857;SDS011;58975;51.978;8.472;2022-11-20T16:46:29;23.95;;;11.27;;
4857;SDS011;58975;51.978;8.472;2022-11-20T16:51:27;22.05;;;11.43;;
4857;SDS011;58975;51.978;8.472;2022-11-20T16:56:25;18.70;;;10.32;;
4857;SDS011;58975;51.978;8.472;2022-11-20T17:01:23;16.40;;;9.20;;
4857;SDS011;58975;51.978;8.472;2022-11-20T17:06:23;15.33;;;7.37;;
4857;SDS011;58975;51.978;8.472;2022-11-20T17:11:21;15.20;;;8.07;;
4857;SDS011;58975;51.978;8.472;2022-11-20T17:16:20;17.10;;;7.57;;
4857;SDS011;58975;51.978;8.472;2022-11-20T17:21:18;16.38;;;8.35;;
4857;SDS011;58975;51.978;8.472;2022-11-20T17:26:16;15.00;;;7.88;;
4857;SDS011;58975;51.978;8.472;2022-11-20T17:31:17;14.85;;;8.07;;
4857;SDS011;58975;51.978;8.472;2022-11-20T17:36:14;16.95;;;8.40;;
4857;SDS011;58975;51.978;8.472;2022-11-20T17:41:13;16.98;;;8.50;;
4857;SDS011;58975;51.978;8.472;2022-11-20T17:46:12;14.80;;;8.38;;
4857;SDS011;58975;51.978;8.472;2022-11-20T17:51:12;16.35;;;7.82;;
4857;SDS011;58975;51.978;8.472;2022-11-20T17:56:11;14.50;;;7.20;;
4857;SDS011;58975;51.978;8.472;2022-11-20T18:01:27;15.45;;;6.95;;
4857;SDS011;58975;51.978;8.472;2022-11-20T18:06:24;14.88;;;7.88;;
4857;SDS011;58975;51.978;8.472;2022-11-20T18:11:23;13.98;;;7.10;;
4857;SDS011;58975;51.978;8.472;2022-11-20T18:16:26;12.10;;;6.10;;
4857;SDS011;58975;51.978;8.472;2022-11-20T18:21:24;13.70;;;6.80;;
4857;SDS011;58975;51.978;8.472;2022-11-20T18:26:22;11.45;;;6.32;;
4857;SDS011;58975;51.978;8.472;2022-11-20T18:31:20;11.43;;;6.13;;
4857;SDS011;58975;51.978;8.472;2022-11-20T18:36:18;13.13;;;6.38;;
4857;SDS011;58975;51.978;8.472;2022-11-20T18:41:16;15.18;;;6.75;;
4857;SDS011;58975;51.978;8.472;2022-11-20T18:46:34;10.90;;;5.95;;
4857;SDS011;58975;51.978;8.472;2022-11-20T18:51:30;17.63;;;8.20;;
4857;SDS011;58975;51.978;8.472;2022-11-20T18:56:26;15.70;;;7.53;;
4857;SDS011;58975;51.978;8.472;2022-11-20T19:01:23;14.65;;;8.15;;
4857;SDS011;58975;51.978;8.472;2022-11-20T19:06:19;15.82;;;7.72;;
4857;SDS011;58975;51.978;8.472;2022-11-20T19:11:16;15.02;;;8.25;;
4857;SDS011;58975;51.978;8.472;2022-11-20T19:16:17;14.70;;;7.80;;
4857;SDS011;58975;51.978;8.472;2022-11-20T19:21:19;17.60;;;9.18;;
4857;SDS011;58975;51.978;8.472;2022-11-20T19:26:18;16.33;;;8.82;;
4857;SDS011;58975;51.978;8.472;2022-11-20T19:31:16;15.65;;;8.13;;
4857;SDS011;58975;51.978;8.472;2022-11-20T19:36:21;19.63;;;9.23;;
4857;SDS011;58975;51.978;8.472;2022-11-20T19:41:20;17.05;;;9.25;;
4857;SDS011;58975;51.978;8.472;2022-11-20T19:46:24;16.67;;;8.30;;
4857;SDS011;58975;51.978;8.472;2022-11-20T19:51:25;18.30;;;8.38;;
4857;SDS011;58975;51.978;8.472;2022-11-20T19:56:25;16.20;;;7.60;;
4857;SDS011;58975;51.978;8.472;2022-11-20T20:01:26;18.10;;;8.37;;
4857;SDS011;58975;51.978;8.472;2022-11-20T20:06:25;20.23;;;9.20;;
4857;SDS011;58975;51.978;8.472;2022-11-20T20:11:23;22.48;;;9.50;;
4857;SDS011;58975;51.978;8.472;2022-11-20T20:16:22;19.70;;;10.55;;
4857;SDS011;58975;51.978;8.472;2022-11-20T20:21:20;22.45;;;10.82;;
4857;SDS011;58975;51.978;8.472;2022-11-20T20:26:16;21.13;;;10.98;;
4857;SDS011;58975;51.978;8.472;2022-11-20T20:31:14;23.60;;;11.18;;
4857;SDS011;58975;51.978;8.472;2022-11-20T20:36:14;21.55;;;11.23;;
4857;SDS011;58975;51.978;8.472;2022-11-20T20:41:17;13.40;;;8.35;;
4857;SDS011;58975;51.978;8.472;2022-11-20T20:46:15;16.67;;;8.32;;
4857;SDS011;58975;51.978;8.472;2022-11-20T20:51:11;14.10;;;8.40;;
4857;SDS011;58975;51.978;8.472;2022-11-20T20:56:07;18.90;;;9.65;;
4857;SDS011;58975;51.978;8.472;2022-11-20T21:01:06;22.48;;;11.50;;
4857;SDS011;58975;51.978;8.472;2022-11-20T21:06:05;20.88;;;11.45;;
4857;SDS011;58975;51.978;8.472;2022-11-20T21:11:04;28.85;;;14.32;;
4857;SDS011;58975;51.978;8.472;2022-11-20T21:16:03;29.08;;;14.18;;
4857;SDS011;58975;51.978;8.472;2022-11-20T21:21:02;29.98;;;13.25;;
4857;SDS011;58975;51.978;8.472;2022-11-20T21:26:19;27.45;;;14.00;;
4857;SDS011;58975;51.978;8.472;2022-11-20T21:31:17;29.17;;;14.25;;
4857;SDS011;58975;51.978;8.472;2022-11-20T21:36:18;26.80;;;13.68;;
4857;SDS011;58975;51.978;8.472;2022-11-20T21:41:16;30.08;;;13.50;;
4857;SDS011;58975;51.978;8.472;2022-11-20T21:46:13;30.02;;;14.43;;
4857;SDS011;58975;51.978;8.472;2022-11-20T21:51:12;30.88;;;13.48;;
4857;SDS011;58975;51.978;8.472;2022-11-20T21:56:13;29.65;;;14.63;;
4857;SDS011;58975;51.978;8.472;2022-11-20T22:01:25;29.33;;;13.90;;
4857;SDS011;58975;51.978;8.472;2022-11-20T22:06:24;31.80;;;13.95;;
4857;SDS011;58975;51.978;8.472;2022-11-20T22:11:22;30.33;;;14.18;;
4857;SDS011;58975;51.978;8.472;2022-11-20T22:16:18;30.67;;;14.82;;
4857;SDS011;58975;51.978;8.472;2022-11-20T22:21:16;33.22;;;14.68;;
4857;SDS011;58975;51.978;8.472;2022-11-20T22:26:15;30.17;;;14.27;;
4857;SDS011;58975;51.978;8.472;2022-11-20T22:31:13;36.85;;;16.45;;
4857;SDS011;58975;51.978;8.472;2022-11-20T22:36:11;32.58;;;15.80;;
4857;SDS011;58975;51.978;8.472;2022-11-20T22:41:14;31.65;;;15.32;;
4857;SDS011;58975;51.978;8.472;2022-11-20T22:46:20;33.25;;;14.52;;
4857;SDS011;58975;51.978;8.472;2022-11-20T22:51:16;36.10;;;16.08;;
4857;SDS011;58975;51.978;8.472;2022-11-20T23:01:25;29.60;;;12.85;;
4857;SDS011;58975;51.978;8.472;2022-11-20T23:06:25;29.90;;;14.07;;
4857;SDS011;58975;51.978;8.472;2022-11-20T23:11:24;29.70;;;14.00;;
4857;SDS011;58975;51.978;8.472;2022-11-20T23:21:19;36.72;;;16.88;;
4857;SDS011;58975;51.978;8.472;2022-11-20T23:26:16;33.70;;;13.43;;
4857;SDS011;58975;51.978;8.472;2022-11-20T23:31:15;30.02;;;14.65;;
4857;SDS011;58975;51.978;8.472;2022-11-20T23:36:12;32.80;;;14.63;;
4857;SDS011;58975;51.978;8.472;2022-11-20T23:41:09;34.60;;;15.10;;
4857;SDS011;58975;51.978;8.472;2022-11-20T23:46:07;31.15;;;14.15;;
4857;SDS011;58975;51.978;8.472;2022-11-20T23:51:11;38.05;;;14.40;;
4857;SDS011;58975;51.978;8.472;2022-11-20T23:56:09;32.55;;;14.55;;
